createdAt,value
2018-10-07T00:00:01.427Z,3.52
2018-10-07T00:02:29.993Z,3.47
2018-10-07T00:04:58.941Z,3.87
2018-10-07T00:07:27.335Z,3.58
2018-10-07T00:09:55.656Z,3.37
2018-10-07T00:12:23.994Z,3.62
2018-10-07T00:14:52.362Z,3.10
2018-10-07T00:17:20.954Z,3.42
2018-10-07T00:19:49.323Z,3.70
2018-10-07T00:22:17.645Z,3.50
2018-10-07T00:24:46.151Z,3.45
2018-10-07T00:27:14.474Z,3.60
2018-10-07T00:29:42.828Z,3.40
2018-10-07T00:32:14.582Z,3.87
2018-10-07T00:34:44.285Z,3.83
2018-10-07T00:37:12.739Z,3.75
2018-10-07T00:39:41.091Z,3.80
2018-10-07T00:42:09.573Z,3.65
2018-10-07T00:44:37.935Z,3.55
2018-10-07T00:47:06.353Z,3.65
2018-10-07T00:49:35.060Z,3.65
2018-10-07T00:52:04.048Z,3.40
2018-10-07T00:54:32.522Z,3.80
2018-10-07T00:57:01.106Z,3.52
2018-10-07T00:59:29.690Z,3.45
2018-10-07T01:01:58.086Z,3.42
2018-10-07T01:04:26.473Z,3.20
2018-10-07T01:06:55.613Z,3.35
2018-10-07T01:09:24.741Z,3.40
2018-10-07T01:11:53.769Z,3.35
2018-10-07T01:14:22.415Z,3.65
2018-10-07T01:16:50.961Z,3.52
2018-10-07T01:19:19.443Z,3.55
2018-10-07T01:21:48.539Z,3.60
2018-10-07T01:24:17.053Z,3.70
2018-10-07T01:26:45.551Z,3.70
2018-10-07T01:29:14.961Z,3.20
2018-10-07T01:31:43.513Z,3.62
2018-10-07T01:34:12.006Z,3.58
2018-10-07T01:36:40.579Z,3.77
2018-10-07T01:39:10.621Z,3.45
2018-10-07T01:41:39.223Z,3.83
2018-10-07T01:44:07.796Z,3.47
2018-10-07T01:46:37.011Z,3.40
2018-10-07T01:49:06.801Z,3.85
2018-10-07T01:51:36.015Z,3.42
2018-10-07T01:54:05.103Z,3.62
2018-10-07T01:56:33.491Z,3.72
2018-10-07T01:59:01.861Z,3.37
2018-10-07T02:01:30.195Z,3.05
2018-10-07T02:03:58.533Z,3.60
2018-10-07T02:06:26.906Z,3.70
2018-10-07T02:08:55.241Z,3.27
2018-10-07T02:11:23.769Z,3.47
2018-10-07T02:13:52.927Z,3.80
2018-10-07T02:16:21.433Z,3.35
2018-10-07T02:18:49.884Z,3.42
2018-10-07T02:21:18.304Z,2.95
2018-10-07T02:23:46.726Z,3.50
2018-10-07T02:26:15.103Z,3.45
2018-10-07T02:28:44.431Z,3.37
2018-10-07T02:31:12.802Z,3.70
2018-10-07T02:33:41.116Z,4.10
2018-10-07T02:36:09.466Z,3.50
2018-10-07T02:38:37.814Z,3.30
2018-10-07T02:41:06.322Z,3.37
2018-10-07T02:43:34.660Z,3.50
2018-10-07T02:46:03.181Z,3.20
2018-10-07T02:48:31.532Z,3.65
2018-10-07T02:50:59.918Z,3.60
2018-10-07T02:53:28.429Z,3.30
2018-10-07T02:55:56.864Z,3.70
2018-10-07T02:58:26.096Z,3.85
2018-10-07T03:00:55.025Z,3.25
2018-10-07T03:03:23.366Z,3.60
2018-10-07T03:05:52.569Z,3.60
2018-10-07T03:08:20.934Z,3.72
2018-10-07T03:10:49.259Z,3.80
2018-10-07T03:13:17.614Z,3.72
2018-10-07T03:15:46.050Z,3.92
2018-10-07T03:18:14.425Z,3.92
2018-10-07T03:20:42.820Z,3.50
2018-10-07T03:23:12.026Z,3.83
2018-10-07T03:25:40.373Z,3.70
2018-10-07T03:28:08.718Z,4.12
2018-10-07T03:30:37.060Z,3.80
2018-10-07T03:33:05.441Z,3.87
2018-10-07T03:35:33.781Z,3.40
2018-10-07T03:38:02.119Z,3.40
2018-10-07T03:40:30.596Z,4.00
2018-10-07T03:42:58.942Z,3.72
2018-10-07T03:45:27.286Z,3.45
2018-10-07T03:47:55.702Z,3.40
2018-10-07T03:50:24.054Z,3.67
2018-10-07T03:52:52.439Z,3.92
2018-10-07T03:55:20.768Z,3.83
2018-10-07T03:57:49.092Z,3.95
2018-10-07T04:00:17.436Z,3.85
2018-10-07T04:02:45.841Z,3.65
2018-10-07T04:05:14.230Z,3.50
2018-10-07T04:07:42.730Z,3.70
2018-10-07T04:10:11.164Z,4.08
2018-10-07T04:12:39.806Z,3.83
2018-10-07T04:15:08.227Z,3.55
2018-10-07T04:17:36.589Z,3.50
2018-10-07T04:20:05.001Z,3.80
2018-10-07T04:22:33.397Z,3.85
2018-10-07T04:25:02.365Z,3.52
2018-10-07T04:27:30.703Z,3.45
2018-10-07T04:29:59.509Z,3.47
2018-10-07T04:32:27.866Z,3.70
2018-10-07T04:34:56.213Z,3.42
2018-10-07T04:37:24.559Z,3.75
2018-10-07T04:39:52.993Z,3.30
2018-10-07T04:42:21.290Z,3.85
2018-10-07T04:44:49.694Z,3.87
2018-10-07T04:47:19.071Z,3.55
2018-10-07T04:49:47.449Z,3.62
2018-10-07T04:52:15.859Z,3.77
2018-10-07T04:54:44.215Z,4.00
2018-10-07T04:57:12.555Z,3.85
2018-10-07T04:59:40.918Z,3.67
2018-10-07T05:02:09.246Z,3.40
2018-10-07T05:04:37.728Z,3.40
2018-10-07T05:07:07.459Z,3.45
2018-10-07T05:09:36.496Z,3.70
2018-10-07T05:12:07.159Z,3.58
2018-10-07T05:14:35.969Z,3.10
2018-10-07T05:17:04.504Z,3.45
2018-10-07T05:19:32.990Z,3.05
2018-10-07T05:22:01.358Z,3.22
2018-10-07T05:24:29.830Z,3.05
2018-10-07T05:26:58.190Z,3.20
2018-10-07T05:29:26.781Z,3.20
2018-10-07T05:31:55.164Z,3.37
2018-10-07T05:34:23.508Z,3.30
2018-10-07T05:36:51.933Z,3.22
2018-10-07T05:39:20.288Z,3.30
2018-10-07T05:41:48.640Z,3.22
2018-10-07T05:44:17.086Z,3.52
2018-10-07T05:46:45.410Z,3.55
2018-10-07T05:49:13.785Z,3.20
2018-10-07T05:51:42.154Z,3.17
2018-10-07T05:54:10.510Z,3.40
2018-10-07T05:56:38.830Z,3.17
2018-10-07T05:59:07.304Z,2.98
2018-10-07T06:01:38.629Z,3.17
2018-10-07T06:04:17.634Z,2.92
2018-10-07T06:06:46.646Z,3.45
2018-10-07T06:09:23.322Z,3.30
2018-10-07T06:11:52.022Z,3.00
2018-10-07T06:14:32.083Z,3.10
2018-10-07T06:17:00.676Z,3.40
2018-10-07T06:19:29.243Z,3.08
2018-10-07T06:21:57.649Z,3.00
2018-10-07T06:24:26.033Z,3.15
2018-10-07T06:26:54.871Z,2.90
2018-10-07T06:29:24.008Z,2.98
2018-10-07T06:31:52.373Z,3.35
2018-10-07T06:34:20.783Z,3.40
2018-10-07T06:36:49.320Z,3.25
2018-10-07T06:39:17.719Z,3.08
2018-10-07T06:41:46.031Z,2.90
2018-10-07T06:44:14.466Z,3.55
2018-10-07T06:46:43.245Z,3.12
2018-10-07T06:49:11.725Z,3.33
2018-10-07T06:51:40.199Z,2.72
2018-10-07T06:54:08.695Z,3.12
2018-10-07T06:56:37.199Z,2.80
2018-10-07T06:59:05.635Z,3.40
2018-10-07T07:01:34.807Z,3.20
2018-10-07T07:04:03.159Z,3.40
2018-10-07T07:06:31.591Z,3.20
2018-10-07T07:09:00.046Z,3.30
2018-10-07T07:11:28.377Z,3.25
2018-10-07T07:13:56.693Z,3.40
2018-10-07T07:16:25.184Z,3.35
2018-10-07T07:18:54.333Z,2.75
2018-10-07T07:21:22.815Z,3.30
2018-10-07T07:23:51.281Z,3.08
2018-10-07T07:26:19.647Z,3.55
2018-10-07T07:28:47.976Z,3.60
2018-10-07T07:31:16.458Z,3.20
2018-10-07T07:33:45.268Z,3.17
2018-10-07T07:36:13.643Z,3.30
2018-10-07T07:38:41.978Z,3.30
2018-10-07T07:41:10.456Z,3.65
2018-10-07T07:43:39.316Z,3.67
2018-10-07T07:46:07.740Z,3.55
2018-10-07T07:48:36.167Z,3.62
2018-10-07T07:51:04.506Z,3.75
2018-10-07T07:53:32.880Z,4.08
2018-10-07T07:56:01.248Z,3.40
2018-10-07T07:58:29.592Z,4.05
2018-10-07T08:00:58.059Z,4.22
2018-10-07T08:03:26.402Z,3.85
2018-10-07T08:05:54.876Z,4.00
2018-10-07T08:08:23.200Z,4.00
2018-10-07T08:10:51.551Z,3.75
2018-10-07T08:13:20.050Z,3.83
2018-10-07T08:15:48.446Z,4.10
2018-10-07T08:18:16.812Z,4.12
2018-10-07T08:20:45.408Z,4.05
2018-10-07T08:23:13.790Z,4.78
2018-10-07T08:25:42.260Z,4.70
2018-10-07T08:28:10.607Z,5.22
2018-10-07T08:30:39.228Z,5.28
2018-10-07T08:33:07.698Z,5.12
2018-10-07T08:35:36.055Z,4.87
2018-10-07T08:38:04.483Z,5.00
2018-10-07T08:40:33.025Z,5.58
2018-10-07T08:43:02.672Z,5.47
2018-10-07T08:45:31.015Z,5.28
2018-10-07T08:47:59.358Z,5.20
2018-10-07T08:50:27.897Z,5.92
2018-10-07T08:52:56.447Z,5.65
2018-10-07T08:55:25.556Z,5.75
2018-10-07T08:57:53.975Z,5.90
2018-10-07T09:00:22.367Z,5.80
2018-10-07T09:02:50.829Z,6.05
2018-10-07T09:05:19.586Z,5.65
2018-10-07T09:07:47.941Z,5.10
2018-10-07T09:10:16.841Z,5.28
2018-10-07T09:12:45.206Z,5.00
2018-10-07T09:15:13.721Z,4.83
2018-10-07T09:17:42.769Z,5.17
2018-10-07T09:20:11.181Z,4.80
2018-10-07T09:22:39.561Z,5.03
2018-10-07T09:25:07.957Z,4.97
2018-10-07T09:27:36.525Z,4.95
2018-10-07T09:30:05.391Z,4.87
2018-10-07T09:32:33.989Z,4.55
2018-10-07T09:35:02.259Z,4.83
2018-10-07T09:37:30.665Z,4.72
2018-10-07T09:39:59.059Z,4.35
2018-10-07T09:42:27.730Z,5.00
2018-10-07T09:44:56.238Z,4.30
2018-10-07T09:47:25.465Z,4.60
2018-10-07T09:49:53.896Z,5.00
2018-10-07T09:52:22.310Z,4.72
2018-10-07T09:54:50.686Z,5.08
2018-10-07T09:57:19.198Z,5.33
2018-10-07T09:59:47.594Z,4.90
2018-10-07T10:02:16.096Z,4.83
2018-10-07T10:04:44.427Z,6.55
2018-10-07T10:07:17.518Z,5.80
2018-10-07T10:09:46.000Z,6.22
2018-10-07T10:12:14.376Z,6.08
2018-10-07T10:14:42.734Z,7.00
2018-10-07T10:17:12.513Z,10.25
2018-10-07T10:20:02.652Z,15.45
2018-10-07T10:24:45.339Z,18.35
2018-10-07T10:27:50.540Z,18.57
2018-10-07T10:30:30.197Z,20.12
2018-10-07T10:34:17.221Z,18.82
2018-10-07T10:37:08.101Z,18.25
2018-10-07T10:39:49.122Z,17.90
2018-10-07T10:43:33.555Z,16.32
2018-10-07T10:46:07.282Z,15.95
2018-10-07T10:48:48.539Z,15.10
2018-10-07T10:51:39.499Z,14.95
2018-10-07T10:54:36.507Z,14.00
2018-10-07T10:57:14.829Z,13.60
2018-10-07T10:59:50.748Z,11.65
2018-10-07T11:02:32.001Z,11.63
2018-10-07T11:06:07.885Z,10.93
2018-10-07T11:08:41.021Z,10.58
2018-10-07T11:11:15.160Z,10.13
2018-10-07T11:14:01.829Z,9.15
2018-10-07T11:16:41.421Z,8.23
2018-10-07T11:19:19.982Z,9.93
2018-10-07T11:24:05.322Z,9.00
2018-10-07T11:26:42.383Z,7.92
2018-10-07T11:29:17.759Z,8.45
2018-10-07T11:31:53.953Z,7.85
2018-10-07T11:34:40.586Z,7.97
2018-10-07T11:37:13.765Z,7.90
2018-10-07T11:39:57.127Z,8.63
2018-10-07T11:42:36.129Z,7.58
2018-10-07T11:45:11.195Z,7.33
2018-10-07T11:48:02.644Z,7.58
2018-10-07T11:50:45.759Z,7.20
2018-10-07T11:53:26.561Z,7.58
2018-10-07T11:55:54.894Z,7.37
2018-10-07T11:58:23.253Z,6.78
2018-10-07T12:00:51.905Z,6.75
2018-10-07T12:03:21.254Z,7.50
2018-10-07T12:05:49.710Z,6.85
2018-10-07T12:08:18.110Z,6.15
2018-10-07T12:10:46.640Z,6.55
2018-10-07T12:13:15.020Z,6.35
2018-10-07T12:15:43.444Z,5.72
2018-10-07T12:18:12.013Z,6.30
2018-10-07T12:20:40.356Z,6.55
2018-10-07T12:23:08.785Z,6.10
2018-10-07T12:25:37.480Z,6.35
2018-10-07T12:28:06.146Z,5.60
2018-10-07T12:30:34.616Z,5.87
2018-10-07T12:33:02.974Z,5.62
2018-10-07T12:35:31.468Z,5.35
2018-10-07T12:37:59.848Z,6.20
2018-10-07T12:40:28.200Z,5.65
2018-10-07T12:42:56.552Z,5.50
2018-10-07T12:45:24.926Z,6.05
2018-10-07T12:47:53.265Z,6.10
2018-10-07T12:50:21.895Z,6.37
2018-10-07T12:52:51.266Z,5.42
2018-10-07T12:55:20.130Z,6.05
2018-10-07T12:57:48.496Z,6.10
2018-10-07T13:00:16.905Z,5.20
2018-10-07T13:02:45.297Z,5.72
2018-10-07T13:05:13.765Z,6.08
2018-10-07T13:07:42.263Z,5.92
2018-10-07T13:10:10.660Z,5.60
2018-10-07T13:12:39.055Z,6.85
2018-10-07T13:15:07.484Z,6.30
2018-10-07T13:17:36.601Z,6.28
2018-10-07T13:20:05.295Z,6.40
2018-10-07T13:22:33.973Z,5.90
2018-10-07T13:25:02.348Z,6.22
2018-10-07T13:27:31.147Z,5.85
2018-10-07T13:29:59.515Z,6.15
2018-10-07T13:32:27.887Z,5.97
2018-10-07T13:34:56.265Z,6.10
2018-10-07T13:37:25.167Z,5.87
2018-10-07T13:39:53.636Z,6.60
2018-10-07T13:42:22.060Z,6.22
2018-10-07T13:44:50.429Z,6.00
2018-10-07T13:47:18.817Z,5.95
2018-10-07T13:49:47.851Z,7.00
2018-10-07T13:52:16.172Z,6.25
2018-10-07T13:54:44.556Z,6.30
2018-10-07T13:57:12.924Z,6.25
2018-10-07T13:59:41.280Z,7.05
2018-10-07T14:02:09.666Z,6.10
2018-10-07T14:04:38.012Z,6.05
2018-10-07T14:07:06.530Z,6.33
2018-10-07T14:09:34.914Z,6.30
2018-10-07T14:12:03.266Z,6.75
2018-10-07T14:14:31.938Z,6.60
2018-10-07T14:17:00.450Z,6.17
2018-10-07T14:19:29.022Z,7.10
2018-10-07T14:21:57.568Z,6.78
2018-10-07T14:24:25.900Z,6.80
2018-10-07T14:26:54.325Z,7.10
2018-10-07T14:29:22.788Z,7.08
2018-10-07T14:31:51.174Z,6.80
2018-10-07T14:34:19.559Z,7.20
2018-10-07T14:36:47.894Z,6.97
2018-10-07T14:39:16.303Z,6.53
2018-10-07T14:41:44.672Z,6.75
2018-10-07T14:44:12.921Z,6.55
2018-10-07T14:46:41.680Z,6.28
2018-10-07T14:49:10.099Z,6.65
2018-10-07T14:51:38.491Z,6.95
2018-10-07T14:54:06.876Z,6.92
2018-10-07T14:56:35.260Z,6.42
2018-10-07T14:59:04.195Z,6.80
2018-10-07T15:01:32.671Z,6.60
2018-10-07T15:04:01.140Z,7.22
2018-10-07T15:06:30.349Z,6.60
2018-10-07T15:08:58.899Z,6.50
2018-10-07T15:11:27.315Z,6.65
2018-10-07T15:13:55.661Z,6.62
2018-10-07T15:16:24.493Z,6.62
2018-10-07T15:18:52.895Z,6.17
2018-10-07T15:21:21.768Z,5.92
2018-10-07T15:23:50.215Z,6.62
2018-10-07T15:26:18.619Z,6.10
2018-10-07T15:28:47.307Z,6.17
2018-10-07T15:31:15.666Z,6.40
2018-10-07T15:33:44.013Z,6.50
2018-10-07T15:36:12.409Z,6.37
2018-10-07T15:38:41.191Z,6.03
2018-10-07T15:41:10.045Z,5.95
2018-10-07T15:43:38.754Z,6.22
2018-10-07T15:46:07.889Z,6.78
2018-10-07T15:48:36.363Z,6.10
2018-10-07T15:51:04.844Z,5.70
2018-10-07T15:53:33.268Z,6.08
2018-10-07T15:56:01.746Z,6.12
2018-10-07T15:58:30.148Z,5.97
2018-10-07T16:00:58.775Z,6.05
2018-10-07T16:03:27.765Z,5.83
2018-10-07T16:05:56.184Z,5.35
2018-10-07T16:08:24.564Z,6.10
2018-10-07T16:10:53.187Z,6.25
2018-10-07T16:13:21.660Z,6.00
2018-10-07T16:15:50.035Z,5.87
2018-10-07T16:18:18.489Z,5.60
2018-10-07T16:20:47.138Z,6.22
2018-10-07T16:23:15.600Z,5.70
2018-10-07T16:25:44.004Z,5.97
2018-10-07T16:28:12.362Z,5.60
2018-10-07T16:30:41.336Z,5.45
2018-10-07T16:33:09.690Z,5.90
2018-10-07T16:35:38.024Z,5.47
2018-10-07T16:38:06.596Z,5.72
2018-10-07T16:40:35.227Z,5.78
2018-10-07T16:43:03.790Z,6.58
2018-10-07T16:45:32.318Z,6.22
2018-10-07T16:48:00.720Z,6.62
2018-10-07T16:50:29.367Z,6.37
2018-10-07T16:52:58.168Z,6.42
2018-10-07T16:55:26.671Z,6.55
2018-10-07T16:57:55.151Z,6.47
2018-10-07T17:00:23.588Z,6.47
2018-10-07T17:02:52.936Z,6.20
2018-10-07T17:05:21.252Z,6.12
2018-10-07T17:07:49.600Z,6.75
2018-10-07T17:10:17.981Z,6.50
2018-10-07T17:12:46.469Z,6.53
2018-10-07T17:15:14.815Z,6.42
2018-10-07T17:17:43.453Z,7.25
2018-10-07T17:20:12.485Z,5.70
2018-10-07T17:22:41.187Z,6.17
2018-10-07T17:25:09.608Z,5.83
2018-10-07T17:27:37.985Z,6.45
2018-10-07T17:30:06.609Z,5.65
2018-10-07T17:32:35.195Z,6.05
2018-10-07T17:35:03.567Z,6.33
2018-10-07T17:37:32.035Z,5.58
2018-10-07T17:40:00.415Z,6.08
2018-10-07T17:42:28.789Z,6.03
2018-10-07T17:44:57.265Z,5.67
2018-10-07T17:47:25.768Z,6.53
2018-10-07T17:49:54.239Z,6.15
2018-10-07T17:52:22.689Z,5.83
2018-10-07T17:54:51.709Z,5.70
2018-10-07T17:57:20.366Z,6.22
2018-10-07T17:59:48.747Z,6.05
2018-10-07T18:02:17.097Z,5.90
2018-10-07T18:04:45.953Z,5.80
2018-10-07T18:07:14.406Z,5.85
2018-10-07T18:09:42.781Z,6.25
2018-10-07T18:12:11.164Z,6.28
2018-10-07T18:14:40.095Z,6.00
2018-10-07T18:17:08.702Z,6.00
2018-10-07T18:19:37.035Z,5.83
2018-10-07T18:22:05.426Z,5.72
2018-10-07T18:24:33.806Z,5.90
2018-10-07T18:27:02.334Z,5.97
2018-10-07T18:29:30.763Z,6.12
2018-10-07T18:31:59.232Z,6.20
2018-10-07T18:34:27.625Z,6.37
2018-10-07T18:36:55.982Z,6.40
2018-10-07T18:39:24.469Z,6.40
2018-10-07T18:41:52.888Z,6.20
2018-10-07T18:44:21.268Z,5.60
2018-10-07T18:46:50.124Z,6.08
2018-10-07T18:49:18.514Z,6.80
2018-10-07T18:51:47.198Z,5.90
2018-10-07T18:54:15.597Z,6.10
2018-10-07T18:56:44.024Z,5.08
2018-10-07T18:59:12.446Z,5.90
2018-10-07T19:01:40.846Z,5.83
2018-10-07T19:04:10.244Z,5.97
2018-10-07T19:06:38.773Z,5.83
2018-10-07T19:09:09.173Z,5.42
2018-10-07T19:11:37.556Z,5.47
2018-10-07T19:14:06.101Z,5.67
2018-10-07T19:16:34.746Z,6.12
2018-10-07T19:19:03.695Z,6.35
2018-10-07T19:21:32.064Z,5.45
2018-10-07T19:24:00.493Z,5.47
2018-10-07T19:26:29.074Z,5.10
2018-10-07T19:28:57.414Z,5.65
2018-10-07T19:31:25.789Z,5.58
2018-10-07T19:33:54.201Z,6.50
2018-10-07T19:36:22.539Z,5.50
2018-10-07T19:38:50.886Z,5.60
2018-10-07T19:41:19.226Z,5.12
2018-10-07T19:43:47.715Z,5.55
2018-10-07T19:46:16.115Z,4.87
2018-10-07T19:48:45.014Z,5.58
2018-10-07T19:51:13.400Z,5.12
2018-10-07T19:53:41.811Z,5.70
2018-10-07T19:56:10.220Z,5.72
2018-10-07T19:58:38.582Z,5.25
2018-10-07T20:01:07.039Z,5.25
2018-10-07T20:03:35.537Z,5.35
2018-10-07T20:06:03.912Z,5.55
2018-10-07T20:08:32.235Z,5.00
2018-10-07T20:11:00.657Z,4.95
2018-10-07T20:13:29.042Z,5.35
2018-10-07T20:15:57.429Z,4.83
2018-10-07T20:18:26.603Z,5.12
2018-10-07T20:20:55.522Z,4.75
2018-10-07T20:23:23.863Z,5.03
2018-10-07T20:25:52.224Z,5.37
2018-10-07T20:28:20.741Z,4.75
2018-10-07T20:30:49.071Z,4.83
2018-10-07T20:33:17.433Z,5.22
2018-10-07T20:35:45.897Z,4.90
2018-10-07T20:38:14.338Z,4.95
2018-10-07T20:40:42.890Z,5.00
2018-10-07T20:43:11.147Z,5.17
2018-10-07T20:45:40.213Z,5.08
2018-10-07T20:48:08.550Z,5.40
2018-10-07T20:50:36.920Z,4.97
2018-10-07T20:53:05.535Z,4.87
2018-10-07T20:55:34.441Z,5.12
2018-10-07T20:58:03.035Z,4.95
2018-10-07T21:00:31.415Z,4.83
2018-10-07T21:03:00.059Z,4.70
2018-10-07T21:05:28.426Z,4.83
2018-10-07T21:07:57.380Z,4.87
2018-10-07T21:10:25.721Z,5.05
2018-10-07T21:12:54.077Z,5.50
2018-10-07T21:15:22.410Z,5.22
2018-10-07T21:17:50.815Z,4.55
2018-10-07T21:20:19.166Z,4.47
2018-10-07T21:22:47.538Z,4.80
2018-10-07T21:25:15.928Z,5.00
2018-10-07T21:27:44.296Z,4.60
2018-10-07T21:30:12.686Z,4.92
2018-10-07T21:32:41.457Z,4.85
2018-10-07T21:35:09.873Z,4.83
2018-10-07T21:37:38.261Z,4.80
2018-10-07T21:40:06.786Z,4.70
2018-10-07T21:42:35.140Z,5.00
2018-10-07T21:45:03.661Z,5.00
2018-10-07T21:47:32.048Z,4.58
2018-10-07T21:50:00.398Z,4.78
2018-10-07T21:52:28.782Z,4.80
2018-10-07T21:54:57.346Z,4.47
2018-10-07T21:57:25.673Z,4.80
2018-10-07T21:59:54.030Z,5.10
2018-10-07T22:02:22.899Z,4.67
2018-10-07T22:04:51.317Z,4.72
2018-10-07T22:07:21.055Z,5.10
2018-10-07T22:09:49.409Z,5.03
2018-10-07T22:12:17.793Z,5.05
2018-10-07T22:14:46.213Z,5.20
2018-10-07T22:17:14.621Z,5.12
2018-10-07T22:19:42.992Z,5.15
2018-10-07T22:22:11.491Z,4.83
2018-10-07T22:24:40.348Z,4.75
2018-10-07T22:27:08.736Z,5.12
2018-10-07T22:29:37.079Z,4.72
2018-10-07T22:32:05.425Z,4.90
2018-10-07T22:34:33.865Z,4.40
2018-10-07T22:37:02.325Z,4.75
2018-10-07T22:39:30.665Z,5.08
2018-10-07T22:41:59.223Z,4.40
2018-10-07T22:44:27.670Z,5.08
2018-10-07T22:46:56.043Z,4.87
2018-10-07T22:49:24.503Z,4.40
2018-10-07T22:51:52.835Z,4.72
2018-10-07T22:54:21.163Z,4.20
2018-10-07T22:56:49.539Z,4.72
2018-10-07T22:59:17.882Z,4.35
2018-10-07T23:01:46.322Z,4.78
2018-10-07T23:04:14.777Z,4.40
2018-10-07T23:06:43.155Z,4.67
2018-10-07T23:09:12.729Z,4.37
2018-10-07T23:11:41.473Z,4.08
2018-10-07T23:14:09.982Z,4.55
2018-10-07T23:16:38.536Z,4.67
2018-10-07T23:19:07.224Z,5.17
2018-10-07T23:21:35.738Z,4.40
2018-10-07T23:24:04.498Z,4.35
2018-10-07T23:26:32.872Z,4.42
2018-10-07T23:29:01.210Z,4.35
2018-10-07T23:31:29.555Z,4.65
2018-10-07T23:33:57.922Z,4.17
2018-10-07T23:36:26.356Z,4.60
2018-10-07T23:38:55.376Z,4.53
2018-10-07T23:41:23.756Z,4.20
2018-10-07T23:43:52.118Z,4.10
2018-10-07T23:46:20.437Z,4.62
2018-10-07T23:48:48.784Z,4.83
2018-10-07T23:51:17.119Z,4.35
2018-10-07T23:53:45.526Z,5.00
2018-10-07T23:56:13.908Z,4.12
2018-10-07T23:58:42.328Z,4.30
